sensor_id;sensor_type;location;lat;lon;timestamp;temperature;humidity
42037;DHT22;30340;52.004;5.908;2022-12-18T00:00:45;-1.70;84.10
42037;DHT22;30340;52.004;5.908;2022-12-18T00:03:15;-1.70;83.90
42037;DHT22;30340;52.004;5.908;2022-12-18T00:05:48;-1.80;83.80
42037;DHT22;30340;52.004;5.908;2022-12-18T00:08:14;-1.80;83.90
42037;DHT22;30340;52.004;5.908;2022-12-18T00:10:39;-1.90;83.70
42037;DHT22;30340;52.004;5.908;2022-12-18T00:13:05;-2.00;83.70
42037;DHT22;30340;52.004;5.908;2022-12-18T00:15:36;-2.00;83.90
42037;DHT22;30340;52.004;5.908;2022-12-18T00:18:02;-2.10;83.70
42037;DHT22;30340;52.004;5.908;2022-12-18T00:20:28;-2.10;83.90
42037;DHT22;30340;52.004;5.908;2022-12-18T00:22:54;-2.20;83.80
42037;DHT22;30340;52.004;5.908;2022-12-18T00:25:20;-2.20;84.00
42037;DHT22;30340;52.004;5.908;2022-12-18T00:27:46;-2.20;83.80
42037;DHT22;30340;52.004;5.908;2022-12-18T00:30:12;-2.20;83.80
42037;DHT22;30340;52.004;5.908;2022-12-18T00:32:37;-2.20;83.80
42037;DHT22;30340;52.004;5.908;2022-12-18T00:35:04;-2.20;83.80
42037;DHT22;30340;52.004;5.908;2022-12-18T00:37:30;-2.20;83.70
42037;DHT22;30340;52.004;5.908;2022-12-18T00:39:56;-2.30;83.40
42037;DHT22;30340;52.004;5.908;2022-12-18T00:42:21;-2.30;83.40
42037;DHT22;30340;52.004;5.908;2022-12-18T00:45:06;-2.30;83.50
42037;DHT22;30340;52.004;5.908;2022-12-18T00:47:31;-2.40;83.40
42037;DHT22;30340;52.004;5.908;2022-12-18T00:49:57;-2.50;83.40
42037;DHT22;30340;52.004;5.908;2022-12-18T00:52:22;-2.40;83.70
42037;DHT22;30340;52.004;5.908;2022-12-18T00:54:48;-2.40;83.50
42037;DHT22;30340;52.004;5.908;2022-12-18T00:57:13;-2.40;83.60
42037;DHT22;30340;52.004;5.908;2022-12-18T00:59:39;-2.40;83.50
42037;DHT22;30340;52.004;5.908;2022-12-18T01:02:05;-2.30;83.50
42037;DHT22;30340;52.004;5.908;2022-12-18T01:04:34;-2.40;83.20
42037;DHT22;30340;52.004;5.908;2022-12-18T01:07:00;-2.40;83.20
42037;DHT22;30340;52.004;5.908;2022-12-18T01:09:26;-2.30;83.30
42037;DHT22;30340;52.004;5.908;2022-12-18T01:11:51;-2.30;83.80
42037;DHT22;30340;52.004;5.908;2022-12-18T01:14:17;-2.30;83.00
42037;DHT22;30340;52.004;5.908;2022-12-18T01:16:43;-2.30;82.90
42037;DHT22;30340;52.004;5.908;2022-12-18T01:19:08;-2.30;82.80
42037;DHT22;30340;52.004;5.908;2022-12-18T01:21:34;-2.30;82.80
42037;DHT22;30340;52.004;5.908;2022-12-18T01:24:00;-2.30;82.80
42037;DHT22;30340;52.004;5.908;2022-12-18T01:26:26;-2.30;82.70
42037;DHT22;30340;52.004;5.908;2022-12-18T01:28:55;-2.30;82.60
42037;DHT22;30340;52.004;5.908;2022-12-18T01:31:25;-2.40;82.50
42037;DHT22;30340;52.004;5.908;2022-12-18T01:33:52;-2.40;82.50
42037;DHT22;30340;52.004;5.908;2022-12-18T01:36:26;-2.50;82.60
42037;DHT22;30340;52.004;5.908;2022-12-18T01:38:53;-2.50;82.60
42037;DHT22;30340;52.004;5.908;2022-12-18T01:41:23;-2.60;82.60
42037;DHT22;30340;52.004;5.908;2022-12-18T01:43:54;-2.60;82.90
42037;DHT22;30340;52.004;5.908;2022-12-18T01:46:25;-2.50;82.90
42037;DHT22;30340;52.004;5.908;2022-12-18T01:48:56;-2.50;82.80
42037;DHT22;30340;52.004;5.908;2022-12-18T01:51:23;-2.40;82.70
42037;DHT22;30340;52.004;5.908;2022-12-18T01:53:49;-2.40;82.50
42037;DHT22;30340;52.004;5.908;2022-12-18T01:56:17;-2.50;82.50
42037;DHT22;30340;52.004;5.908;2022-12-18T01:59:03;-2.50;82.50
42037;DHT22;30340;52.004;5.908;2022-12-18T02:01:30;-2.60;82.50
42037;DHT22;30340;52.004;5.908;2022-12-18T02:04:26;-2.60;82.50
42037;DHT22;30340;52.004;5.908;2022-12-18T02:07:08;-2.60;82.60
42037;DHT22;30340;52.004;5.908;2022-12-18T02:09:53;-2.70;82.50
42037;DHT22;30340;52.004;5.908;2022-12-18T02:12:24;-2.60;83.30
42037;DHT22;30340;52.004;5.908;2022-12-18T02:15:13;-2.60;82.50
42037;DHT22;30340;52.004;5.908;2022-12-18T02:18:00;-2.60;82.40
42037;DHT22;30340;52.004;5.908;2022-12-18T02:20:54;-2.60;82.40
42037;DHT22;30340;52.004;5.908;2022-12-18T02:23:43;-2.60;82.90
42037;DHT22;30340;52.004;5.908;2022-12-18T02:26:27;-2.60;82.30
42037;DHT22;30340;52.004;5.908;2022-12-18T02:31:27;-2.60;82.30
42037;DHT22;30340;52.004;5.908;2022-12-18T02:33:58;-2.60;82.30
42037;DHT22;30340;52.004;5.908;2022-12-18T02:36:25;-2.60;82.30
42037;DHT22;30340;52.004;5.908;2022-12-18T02:38:52;-2.60;82.30
42037;DHT22;30340;52.004;5.908;2022-12-18T02:41:20;-2.60;82.20
42037;DHT22;30340;52.004;5.908;2022-12-18T02:43:48;-2.60;82.10
42037;DHT22;30340;52.004;5.908;2022-12-18T02:46:44;-2.60;82.10
42037;DHT22;30340;52.004;5.908;2022-12-18T02:49:29;-2.50;82.20
42037;DHT22;30340;52.004;5.908;2022-12-18T02:52:07;-2.60;81.90
42037;DHT22;30340;52.004;5.908;2022-12-18T02:57:40;-2.60;82.00
42037;DHT22;30340;52.004;5.908;2022-12-18T03:00:14;-2.70;81.90
42037;DHT22;30340;52.004;5.908;2022-12-18T03:03:02;-2.60;82.00
42037;DHT22;30340;52.004;5.908;2022-12-18T03:08:29;-2.70;81.90
42037;DHT22;30340;52.004;5.908;2022-12-18T03:11:03;-2.70;81.80
42037;DHT22;30340;52.004;5.908;2022-12-18T03:13:40;-2.70;81.80
42037;DHT22;30340;52.004;5.908;2022-12-18T03:16:11;-2.70;81.80
42037;DHT22;30340;52.004;5.908;2022-12-18T03:18:47;-2.70;81.80
42037;DHT22;30340;52.004;5.908;2022-12-18T03:21:15;-2.70;81.90
42037;DHT22;30340;52.004;5.908;2022-12-18T03:23:48;-2.70;81.80
42037;DHT22;30340;52.004;5.908;2022-12-18T03:26:19;-2.70;81.70
42037;DHT22;30340;52.004;5.908;2022-12-18T03:28:51;-2.70;81.60
42037;DHT22;30340;52.004;5.908;2022-12-18T03:31:20;-2.60;81.70
42037;DHT22;30340;52.004;5.908;2022-12-18T03:33:55;-2.60;81.60
42037;DHT22;30340;52.004;5.908;2022-12-18T03:36:22;-2.70;81.60
42037;DHT22;30340;52.004;5.908;2022-12-18T03:38:49;-2.70;81.50
42037;DHT22;30340;52.004;5.908;2022-12-18T03:41:37;-2.70;81.50
42037;DHT22;30340;52.004;5.908;2022-12-18T03:44:13;-2.70;81.50
42037;DHT22;30340;52.004;5.908;2022-12-18T03:47:06;-2.70;81.30
42037;DHT22;30340;52.004;5.908;2022-12-18T03:52:11;-2.90;81.30
42037;DHT22;30340;52.004;5.908;2022-12-18T03:54:39;-2.90;81.50
42037;DHT22;30340;52.004;5.908;2022-12-18T03:57:16;-2.90;81.60
42037;DHT22;30340;52.004;5.908;2022-12-18T03:59:44;-2.90;81.50
42037;DHT22;30340;52.004;5.908;2022-12-18T04:02:11;-2.90;81.50
42037;DHT22;30340;52.004;5.908;2022-12-18T04:04:38;-3.00;81.50
42037;DHT22;30340;52.004;5.908;2022-12-18T04:07:05;-3.00;81.70
42037;DHT22;30340;52.004;5.908;2022-12-18T04:09:33;-3.00;81.70
42037;DHT22;30340;52.004;5.908;2022-12-18T04:11:59;-3.00;81.60
42037;DHT22;30340;52.004;5.908;2022-12-18T04:14:25;-3.00;81.80
42037;DHT22;30340;52.004;5.908;2022-12-18T04:16:50;-3.00;81.80
42037;DHT22;30340;52.004;5.908;2022-12-18T04:19:16;-3.00;81.80
42037;DHT22;30340;52.004;5.908;2022-12-18T04:21:42;-3.00;81.70
42037;DHT22;30340;52.004;5.908;2022-12-18T04:24:07;-3.00;81.80
42037;DHT22;30340;52.004;5.908;2022-12-18T04:26:34;-3.00;81.70
42037;DHT22;30340;52.004;5.908;2022-12-18T04:28:59;-3.00;81.70
42037;DHT22;30340;52.004;5.908;2022-12-18T04:31:26;-3.10;81.70
42037;DHT22;30340;52.004;5.908;2022-12-18T04:33:51;-3.00;81.80
42037;DHT22;30340;52.004;5.908;2022-12-18T04:36:17;-3.10;81.80
42037;DHT22;30340;52.004;5.908;2022-12-18T04:38:43;-3.00;82.50
42037;DHT22;30340;52.004;5.908;2022-12-18T04:41:08;-3.10;81.70
42037;DHT22;30340;52.004;5.908;2022-12-18T04:43:34;-3.00;81.70
42037;DHT22;30340;52.004;5.908;2022-12-18T04:46:04;-3.00;81.80
42037;DHT22;30340;52.004;5.908;2022-12-18T04:48:30;-3.10;81.80
42037;DHT22;30340;52.004;5.908;2022-12-18T04:50:56;-3.10;81.90
42037;DHT22;30340;52.004;5.908;2022-12-18T04:53:21;-3.10;81.90
42037;DHT22;30340;52.004;5.908;2022-12-18T04:55:47;-3.10;82.00
42037;DHT22;30340;52.004;5.908;2022-12-18T04:58:12;-3.10;82.10
42037;DHT22;30340;52.004;5.908;2022-12-18T05:00:38;-3.10;82.20
42037;DHT22;30340;52.004;5.908;2022-12-18T05:03:04;-3.10;82.20
42037;DHT22;30340;52.004;5.908;2022-12-18T05:05:30;-3.10;82.20
42037;DHT22;30340;52.004;5.908;2022-12-18T05:07:56;-3.10;82.20
42037;DHT22;30340;52.004;5.908;2022-12-18T05:10:21;-3.10;82.90
42037;DHT22;30340;52.004;5.908;2022-12-18T05:12:47;-3.10;82.20
42037;DHT22;30340;52.004;5.908;2022-12-18T05:15:29;-3.10;82.20
42037;DHT22;30340;52.004;5.908;2022-12-18T05:17:56;-3.10;82.20
42037;DHT22;30340;52.004;5.908;2022-12-18T05:20:22;-3.10;82.20
42037;DHT22;30340;52.004;5.908;2022-12-18T05:22:48;-3.00;82.20
42037;DHT22;30340;52.004;5.908;2022-12-18T05:25:14;-3.00;82.00
42037;DHT22;30340;52.004;5.908;2022-12-18T05:27:40;-3.10;82.00
42037;DHT22;30340;52.004;5.908;2022-12-18T05:30:06;-3.10;82.00
42037;DHT22;30340;52.004;5.908;2022-12-18T05:32:32;-3.10;82.10
42037;DHT22;30340;52.004;5.908;2022-12-18T05:34:57;-3.10;82.10
42037;DHT22;30340;52.004;5.908;2022-12-18T05:37:23;-3.10;82.10
42037;DHT22;30340;52.004;5.908;2022-12-18T05:39:48;-3.10;82.10
42037;DHT22;30340;52.004;5.908;2022-12-18T05:42:14;-3.10;82.10
42037;DHT22;30340;52.004;5.908;2022-12-18T05:44:40;-3.10;82.20
42037;DHT22;30340;52.004;5.908;2022-12-18T05:47:05;-3.10;82.20
42037;DHT22;30340;52.004;5.908;2022-12-18T05:49:31;-3.10;82.20
42037;DHT22;30340;52.004;5.908;2022-12-18T05:51:57;-3.10;82.10
42037;DHT22;30340;52.004;5.908;2022-12-18T05:54:22;-3.10;82.00
42037;DHT22;30340;52.004;5.908;2022-12-18T05:56:48;-3.10;82.00
42037;DHT22;30340;52.004;5.908;2022-12-18T05:59:13;-3.10;82.00
42037;DHT22;30340;52.004;5.908;2022-12-18T06:01:39;-3.10;82.00
42037;DHT22;30340;52.004;5.908;2022-12-18T06:04:05;-3.20;82.10
42037;DHT22;30340;52.004;5.908;2022-12-18T06:06:30;-3.20;82.20
42037;DHT22;30340;52.004;5.908;2022-12-18T06:08:57;-3.10;82.40
42037;DHT22;30340;52.004;5.908;2022-12-18T06:11:25;-3.10;82.40
42037;DHT22;30340;52.004;5.908;2022-12-18T06:13:53;-3.10;82.40
42037;DHT22;30340;52.004;5.908;2022-12-18T06:16:19;-3.00;82.40
42037;DHT22;30340;52.004;5.908;2022-12-18T06:18:44;-3.00;82.30
42037;DHT22;30340;52.004;5.908;2022-12-18T06:21:10;-3.00;82.20
42037;DHT22;30340;52.004;5.908;2022-12-18T06:23:35;-3.00;82.20
42037;DHT22;30340;52.004;5.908;2022-12-18T06:26:09;-3.00;82.20
42037;DHT22;30340;52.004;5.908;2022-12-18T06:28:35;-3.00;82.20
42037;DHT22;30340;52.004;5.908;2022-12-18T06:31:05;-2.90;82.10
42037;DHT22;30340;52.004;5.908;2022-12-18T06:33:31;-2.90;82.10
42037;DHT22;30340;52.004;5.908;2022-12-18T06:36:09;-2.90;82.00
42037;DHT22;30340;52.004;5.908;2022-12-18T06:38:36;-3.00;82.00
42037;DHT22;30340;52.004;5.908;2022-12-18T06:41:10;-3.00;82.00
42037;DHT22;30340;52.004;5.908;2022-12-18T06:43:35;-3.00;82.10
42037;DHT22;30340;52.004;5.908;2022-12-18T06:46:02;-3.00;82.10
42037;DHT22;30340;52.004;5.908;2022-12-18T06:48:28;-3.00;82.10
42037;DHT22;30340;52.004;5.908;2022-12-18T06:50:55;-3.00;82.20
42037;DHT22;30340;52.004;5.908;2022-12-18T06:53:21;-3.00;82.10
42037;DHT22;30340;52.004;5.908;2022-12-18T06:55:47;-2.90;82.10
42037;DHT22;30340;52.004;5.908;2022-12-18T06:58:12;-2.90;82.00
42037;DHT22;30340;52.004;5.908;2022-12-18T07:00:38;-2.90;82.00
42037;DHT22;30340;52.004;5.908;2022-12-18T07:03:03;-2.90;82.00
42037;DHT22;30340;52.004;5.908;2022-12-18T07:05:29;-2.90;82.00
42037;DHT22;30340;52.004;5.908;2022-12-18T07:07:55;-2.90;81.90
42037;DHT22;30340;52.004;5.908;2022-12-18T07:10:20;-2.80;82.00
42037;DHT22;30340;52.004;5.908;2022-12-18T07:12:46;-2.80;82.00
42037;DHT22;30340;52.004;5.908;2022-12-18T07:15:11;-2.80;81.90
42037;DHT22;30340;52.004;5.908;2022-12-18T07:17:37;-2.80;81.90
42037;DHT22;30340;52.004;5.908;2022-12-18T07:20:03;-2.80;82.00
42037;DHT22;30340;52.004;5.908;2022-12-18T07:22:29;-2.80;82.00
42037;DHT22;30340;52.004;5.908;2022-12-18T07:24:55;-2.80;81.90
42037;DHT22;30340;52.004;5.908;2022-12-18T07:27:21;-2.80;82.00
42037;DHT22;30340;52.004;5.908;2022-12-18T07:29:46;-2.80;81.80
42037;DHT22;30340;52.004;5.908;2022-12-18T07:32:12;-2.80;81.80
42037;DHT22;30340;52.004;5.908;2022-12-18T07:34:37;-2.80;81.90
42037;DHT22;30340;52.004;5.908;2022-12-18T07:37:03;-2.70;81.90
42037;DHT22;30340;52.004;5.908;2022-12-18T07:39:28;-2.70;81.90
42037;DHT22;30340;52.004;5.908;2022-12-18T07:41:55;-2.70;81.90
42037;DHT22;30340;52.004;5.908;2022-12-18T07:44:39;-2.70;81.80
42037;DHT22;30340;52.004;5.908;2022-12-18T07:47:05;-2.70;81.80
42037;DHT22;30340;52.004;5.908;2022-12-18T07:49:30;-2.60;81.80
42037;DHT22;30340;52.004;5.908;2022-12-18T07:51:56;-2.60;81.70
42037;DHT22;30340;52.004;5.908;2022-12-18T07:54:23;-2.50;81.70
42037;DHT22;30340;52.004;5.908;2022-12-18T07:56:48;-2.60;81.60
42037;DHT22;30340;52.004;5.908;2022-12-18T07:59:14;-2.50;81.10
42037;DHT22;30340;52.004;5.908;2022-12-18T08:01:40;-2.50;81.50
42037;DHT22;30340;52.004;5.908;2022-12-18T08:04:05;-2.50;81.40
42037;DHT22;30340;52.004;5.908;2022-12-18T08:06:31;-2.40;81.40
42037;DHT22;30340;52.004;5.908;2022-12-18T08:09:03;-2.30;81.40
42037;DHT22;30340;52.004;5.908;2022-12-18T08:11:28;-2.30;81.30
42037;DHT22;30340;52.004;5.908;2022-12-18T08:13:55;-2.30;81.20
42037;DHT22;30340;52.004;5.908;2022-12-18T08:16:22;-2.30;81.10
42037;DHT22;30340;52.004;5.908;2022-12-18T08:18:48;-2.30;81.10
42037;DHT22;30340;52.004;5.908;2022-12-18T08:21:20;-2.20;81.10
42037;DHT22;30340;52.004;5.908;2022-12-18T08:23:48;-2.30;81.00
42037;DHT22;30340;52.004;5.908;2022-12-18T08:26:14;-2.20;81.00
42037;DHT22;30340;52.004;5.908;2022-12-18T08:28:40;-2.20;80.90
42037;DHT22;30340;52.004;5.908;2022-12-18T08:31:06;-2.20;80.90
42037;DHT22;30340;52.004;5.908;2022-12-18T08:33:33;-2.10;80.90
42037;DHT22;30340;52.004;5.908;2022-12-18T08:36:00;-2.10;80.90
42037;DHT22;30340;52.004;5.908;2022-12-18T08:38:25;-2.10;80.80
42037;DHT22;30340;52.004;5.908;2022-12-18T08:41:06;-2.10;80.80
42037;DHT22;30340;52.004;5.908;2022-12-18T08:43:32;-2.00;80.80
42037;DHT22;30340;52.004;5.908;2022-12-18T08:46:18;-2.00;80.60
42037;DHT22;30340;52.004;5.908;2022-12-18T08:48:44;-2.00;80.60
42037;DHT22;30340;52.004;5.908;2022-12-18T08:51:09;-2.00;80.60
42037;DHT22;30340;52.004;5.908;2022-12-18T08:53:36;-2.00;80.60
42037;DHT22;30340;52.004;5.908;2022-12-18T08:56:02;-1.90;80.60
42037;DHT22;30340;52.004;5.908;2022-12-18T08:58:28;-1.90;80.50
42037;DHT22;30340;52.004;5.908;2022-12-18T09:00:54;-1.90;80.40
42037;DHT22;30340;52.004;5.908;2022-12-18T09:03:20;-1.90;80.40
42037;DHT22;30340;52.004;5.908;2022-12-18T09:05:48;-1.90;80.30
42037;DHT22;30340;52.004;5.908;2022-12-18T09:08:13;-1.80;80.50
42037;DHT22;30340;52.004;5.908;2022-12-18T09:10:47;-1.80;80.30
42037;DHT22;30340;52.004;5.908;2022-12-18T09:13:13;-1.70;80.30
42037;DHT22;30340;52.004;5.908;2022-12-18T09:15:44;-1.70;80.30
42037;DHT22;30340;52.004;5.908;2022-12-18T09:18:11;-1.70;80.10
42037;DHT22;30340;52.004;5.908;2022-12-18T09:20:37;-1.60;80.10
42037;DHT22;30340;52.004;5.908;2022-12-18T09:23:04;-1.60;80.10
42037;DHT22;30340;52.004;5.908;2022-12-18T09:25:30;-1.60;80.10
42037;DHT22;30340;52.004;5.908;2022-12-18T09:27:59;-1.50;80.10
42037;DHT22;30340;52.004;5.908;2022-12-18T09:30:24;-1.40;80.60
42037;DHT22;30340;52.004;5.908;2022-12-18T09:32:50;-1.40;80.00
42037;DHT22;30340;52.004;5.908;2022-12-18T09:35:15;-1.30;80.00
42037;DHT22;30340;52.004;5.908;2022-12-18T09:37:41;-1.20;80.00
42037;DHT22;30340;52.004;5.908;2022-12-18T09:40:14;-1.20;79.80
42037;DHT22;30340;52.004;5.908;2022-12-18T09:42:40;-1.10;79.50
42037;DHT22;30340;52.004;5.908;2022-12-18T09:45:13;-1.10;79.30
42037;DHT22;30340;52.004;5.908;2022-12-18T09:47:41;-1.00;79.20
42037;DHT22;30340;52.004;5.908;2022-12-18T09:50:30;-1.00;79.10
42037;DHT22;30340;52.004;5.908;2022-12-18T09:52:59;-0.90;78.90
42037;DHT22;30340;52.004;5.908;2022-12-18T09:59:16;-0.80;78.60
42037;DHT22;30340;52.004;5.908;2022-12-18T10:02:34;-0.70;78.40
42037;DHT22;30340;52.004;5.908;2022-12-18T10:15:29;-0.70;77.70
42037;DHT22;30340;52.004;5.908;2022-12-18T10:18:31;-0.60;77.50
42037;DHT22;30340;52.004;5.908;2022-12-18T10:21:05;-0.60;77.50
42037;DHT22;30340;52.004;5.908;2022-12-18T10:23:56;-0.50;77.40
42037;DHT22;30340;52.004;5.908;2022-12-18T10:26:27;-0.50;77.00
42037;DHT22;30340;52.004;5.908;2022-12-18T10:28:53;-0.50;76.60
42037;DHT22;30340;52.004;5.908;2022-12-18T10:31:21;-0.40;76.60
42037;DHT22;30340;52.004;5.908;2022-12-18T10:33:47;-0.40;76.60
42037;DHT22;30340;52.004;5.908;2022-12-18T10:36:13;-0.30;76.50
42037;DHT22;30340;52.004;5.908;2022-12-18T10:39:15;-0.30;76.50
42037;DHT22;30340;52.004;5.908;2022-12-18T10:41:50;-0.20;76.30
42037;DHT22;30340;52.004;5.908;2022-12-18T10:44:21;-0.10;76.10
42037;DHT22;30340;52.004;5.908;2022-12-18T10:46:54;-0.10;76.00
42037;DHT22;30340;52.004;5.908;2022-12-18T10:49:27;0.00;76.00
42037;DHT22;30340;52.004;5.908;2022-12-18T10:54:32;0.00;75.60
42037;DHT22;30340;52.004;5.908;2022-12-18T10:59:53;0.00;75.40
42037;DHT22;30340;52.004;5.908;2022-12-18T11:02:28;0.10;75.20
42037;DHT22;30340;52.004;5.908;2022-12-18T11:04:58;0.00;75.10
42037;DHT22;30340;52.004;5.908;2022-12-18T11:07:24;0.10;75.10
42037;DHT22;30340;52.004;5.908;2022-12-18T11:10:02;0.10;74.80
42037;DHT22;30340;52.004;5.908;2022-12-18T11:12:28;0.20;75.00
42037;DHT22;30340;52.004;5.908;2022-12-18T11:14:55;0.20;74.60
42037;DHT22;30340;52.004;5.908;2022-12-18T11:17:36;0.20;74.70
42037;DHT22;30340;52.004;5.908;2022-12-18T11:20:05;0.30;74.70
42037;DHT22;30340;52.004;5.908;2022-12-18T11:22:34;0.40;74.60
42037;DHT22;30340;52.004;5.908;2022-12-18T11:25:17;0.40;74.40
42037;DHT22;30340;52.004;5.908;2022-12-18T11:27:55;0.40;74.20
42037;DHT22;30340;52.004;5.908;2022-12-18T11:33:13;0.50;73.90
42037;DHT22;30340;52.004;5.908;2022-12-18T11:38:19;0.60;73.50
42037;DHT22;30340;52.004;5.908;2022-12-18T11:40:57;0.60;73.20
42037;DHT22;30340;52.004;5.908;2022-12-18T11:46:18;0.70;72.90
42037;DHT22;30340;52.004;5.908;2022-12-18T11:49:03;0.70;72.90
42037;DHT22;30340;52.004;5.908;2022-12-18T11:51:43;0.70;72.00
42037;DHT22;30340;52.004;5.908;2022-12-18T11:54:15;0.70;71.80
42037;DHT22;30340;52.004;5.908;2022-12-18T12:21:46;1.00;70.40
42037;DHT22;30340;52.004;5.908;2022-12-18T12:27:22;1.10;70.60
42037;DHT22;30340;52.004;5.908;2022-12-18T12:30:21;1.10;70.60
42037;DHT22;30340;52.004;5.908;2022-12-18T12:33:16;1.10;69.80
42037;DHT22;30340;52.004;5.908;2022-12-18T12:35:52;1.10;69.80
42037;DHT22;30340;52.004;5.908;2022-12-18T12:38:28;1.10;70.00
42037;DHT22;30340;52.004;5.908;2022-12-18T12:41:02;1.10;69.90
42037;DHT22;30340;52.004;5.908;2022-12-18T12:43:44;1.10;69.60
42037;DHT22;30340;52.004;5.908;2022-12-18T12:46:14;1.20;69.50
42037;DHT22;30340;52.004;5.908;2022-12-18T12:48:48;1.20;69.40
42037;DHT22;30340;52.004;5.908;2022-12-18T12:51:23;1.20;69.40
42037;DHT22;30340;52.004;5.908;2022-12-18T12:53:52;1.20;69.40
42037;DHT22;30340;52.004;5.908;2022-12-18T12:56:20;1.20;69.40
42037;DHT22;30340;52.004;5.908;2022-12-18T12:58:55;1.20;69.10
42037;DHT22;30340;52.004;5.908;2022-12-18T13:01:32;1.20;69.10
42037;DHT22;30340;52.004;5.908;2022-12-18T13:04:23;1.30;69.30
42037;DHT22;30340;52.004;5.908;2022-12-18T13:07:03;1.20;69.20
42037;DHT22;30340;52.004;5.908;2022-12-18T13:09:31;1.30;69.30
42037;DHT22;30340;52.004;5.908;2022-12-18T13:12:04;1.30;68.80
42037;DHT22;30340;52.004;5.908;2022-12-18T13:14:52;1.30;68.60
42037;DHT22;30340;52.004;5.908;2022-12-18T13:20:04;1.30;68.70
42037;DHT22;30340;52.004;5.908;2022-12-18T13:22:35;1.30;68.60
42037;DHT22;30340;52.004;5.908;2022-12-18T13:25:01;1.30;68.60
42037;DHT22;30340;52.004;5.908;2022-12-18T13:30:42;1.40;68.50
42037;DHT22;30340;52.004;5.908;2022-12-18T13:40:58;1.30;67.60
42037;DHT22;30340;52.004;5.908;2022-12-18T13:43:48;1.30;67.90
42037;DHT22;30340;52.004;5.908;2022-12-18T13:51:23;1.40;67.90
42037;DHT22;30340;52.004;5.908;2022-12-18T13:53:52;1.40;68.00
42037;DHT22;30340;52.004;5.908;2022-12-18T13:56:26;1.40;67.90
42037;DHT22;30340;52.004;5.908;2022-12-18T13:59:18;1.40;68.60
42037;DHT22;30340;52.004;5.908;2022-12-18T14:01:53;1.50;67.90
42037;DHT22;30340;52.004;5.908;2022-12-18T14:04:30;1.50;67.60
42037;DHT22;30340;52.004;5.908;2022-12-18T14:07:01;1.40;67.50
42037;DHT22;30340;52.004;5.908;2022-12-18T14:09:35;1.40;67.40
42037;DHT22;30340;52.004;5.908;2022-12-18T14:12:02;1.40;67.40
42037;DHT22;30340;52.004;5.908;2022-12-18T14:14:48;1.50;67.40
42037;DHT22;30340;52.004;5.908;2022-12-18T14:17:15;1.50;67.50
42037;DHT22;30340;52.004;5.908;2022-12-18T14:20:00;1.50;67.40
42037;DHT22;30340;52.004;5.908;2022-12-18T14:22:26;1.50;67.20
42037;DHT22;30340;52.004;5.908;2022-12-18T14:27:51;1.50;67.40
42037;DHT22;30340;52.004;5.908;2022-12-18T14:30:24;1.50;67.30
42037;DHT22;30340;52.004;5.908;2022-12-18T14:33:04;1.50;67.10
42037;DHT22;30340;52.004;5.908;2022-12-18T14:35:31;1.40;67.30
42037;DHT22;30340;52.004;5.908;2022-12-18T14:38:30;1.40;67.50
42037;DHT22;30340;52.004;5.908;2022-12-18T14:41:17;1.50;67.50
42037;DHT22;30340;52.004;5.908;2022-12-18T14:43:45;1.50;67.70
42037;DHT22;30340;52.004;5.908;2022-12-18T14:46:47;1.50;68.10
42037;DHT22;30340;52.004;5.908;2022-12-18T14:49:19;1.50;67.60
42037;DHT22;30340;52.004;5.908;2022-12-18T14:51:52;1.50;67.50
42037;DHT22;30340;52.004;5.908;2022-12-18T14:54:19;1.50;67.70
42037;DHT22;30340;52.004;5.908;2022-12-18T14:57:00;1.50;67.60
42037;DHT22;30340;52.004;5.908;2022-12-18T14:59:27;1.50;67.70
42037;DHT22;30340;52.004;5.908;2022-12-18T15:04:39;1.40;67.90
42037;DHT22;30340;52.004;5.908;2022-12-18T15:07:20;1.50;67.90
42037;DHT22;30340;52.004;5.908;2022-12-18T15:10:24;1.50;67.80
42037;DHT22;30340;52.004;5.908;2022-12-18T15:15:44;1.60;67.90
42037;DHT22;30340;52.004;5.908;2022-12-18T15:18:11;1.50;67.80
42037;DHT22;30340;52.004;5.908;2022-12-18T15:20:41;1.50;67.80
42037;DHT22;30340;52.004;5.908;2022-12-18T15:25:42;1.50;67.70
42037;DHT22;30340;52.004;5.908;2022-12-18T15:28:53;1.50;67.80
42037;DHT22;30340;52.004;5.908;2022-12-18T15:31:33;1.50;67.80
42037;DHT22;30340;52.004;5.908;2022-12-18T15:34:12;1.50;67.80
42037;DHT22;30340;52.004;5.908;2022-12-18T15:36:38;1.50;67.90
42037;DHT22;30340;52.004;5.908;2022-12-18T15:39:04;1.50;67.90
42037;DHT22;30340;52.004;5.908;2022-12-18T15:41:32;1.50;68.00
42037;DHT22;30340;52.004;5.908;2022-12-18T15:43:59;1.50;67.80
42037;DHT22;30340;52.004;5.908;2022-12-18T15:46:25;1.50;67.50
42037;DHT22;30340;52.004;5.908;2022-12-18T15:48:56;1.50;67.50
42037;DHT22;30340;52.004;5.908;2022-12-18T15:51:35;1.50;67.40
42037;DHT22;30340;52.004;5.908;2022-12-18T15:54:04;1.50;67.50
42037;DHT22;30340;52.004;5.908;2022-12-18T15:56:31;1.40;67.30
42037;DHT22;30340;52.004;5.908;2022-12-18T15:59:18;1.50;67.40
42037;DHT22;30340;52.004;5.908;2022-12-18T16:01:49;1.40;67.40
42037;DHT22;30340;52.004;5.908;2022-12-18T16:04:16;1.40;67.30
42037;DHT22;30340;52.004;5.908;2022-12-18T16:06:43;1.40;67.40
42037;DHT22;30340;52.004;5.908;2022-12-18T16:09:08;1.40;67.40
42037;DHT22;30340;52.004;5.908;2022-12-18T16:11:36;1.40;67.50
42037;DHT22;30340;52.004;5.908;2022-12-18T16:14:21;1.40;67.50
42037;DHT22;30340;52.004;5.908;2022-12-18T16:16:50;1.40;67.70
42037;DHT22;30340;52.004;5.908;2022-12-18T16:19:16;1.50;67.50
42037;DHT22;30340;52.004;5.908;2022-12-18T16:21:45;1.50;67.60
42037;DHT22;30340;52.004;5.908;2022-12-18T16:24:31;1.50;67.60
42037;DHT22;30340;52.004;5.908;2022-12-18T16:26:59;1.40;67.40
42037;DHT22;30340;52.004;5.908;2022-12-18T16:29:26;1.40;67.50
42037;DHT22;30340;52.004;5.908;2022-12-18T16:31:56;1.40;67.20
42037;DHT22;30340;52.004;5.908;2022-12-18T16:34:30;1.30;67.50
42037;DHT22;30340;52.004;5.908;2022-12-18T16:37:01;1.40;67.70
42037;DHT22;30340;52.004;5.908;2022-12-18T16:39:27;1.40;67.60
42037;DHT22;30340;52.004;5.908;2022-12-18T16:41:53;1.30;67.50
42037;DHT22;30340;52.004;5.908;2022-12-18T16:44:19;1.40;67.90
42037;DHT22;30340;52.004;5.908;2022-12-18T16:46:45;1.30;67.40
42037;DHT22;30340;52.004;5.908;2022-12-18T16:49:12;1.30;67.50
42037;DHT22;30340;52.004;5.908;2022-12-18T16:51:38;1.30;67.70
42037;DHT22;30340;52.004;5.908;2022-12-18T16:54:04;1.30;67.80
42037;DHT22;30340;52.004;5.908;2022-12-18T16:56:30;1.40;67.70
42037;DHT22;30340;52.004;5.908;2022-12-18T16:58:58;1.30;67.50
42037;DHT22;30340;52.004;5.908;2022-12-18T17:01:25;1.30;67.70
42037;DHT22;30340;52.004;5.908;2022-12-18T17:03:52;1.30;67.70
42037;DHT22;30340;52.004;5.908;2022-12-18T17:06:18;1.20;67.60
42037;DHT22;30340;52.004;5.908;2022-12-18T17:08:44;1.20;67.90
42037;DHT22;30340;52.004;5.908;2022-12-18T17:11:10;1.30;68.00
42037;DHT22;30340;52.004;5.908;2022-12-18T17:13:35;1.30;68.00
42037;DHT22;30340;52.004;5.908;2022-12-18T17:16:02;1.40;68.10
42037;DHT22;30340;52.004;5.908;2022-12-18T17:18:28;1.30;67.90
42037;DHT22;30340;52.004;5.908;2022-12-18T17:20:58;1.20;68.20
42037;DHT22;30340;52.004;5.908;2022-12-18T17:23:24;1.30;68.40
42037;DHT22;30340;52.004;5.908;2022-12-18T17:25:54;1.30;68.20
42037;DHT22;30340;52.004;5.908;2022-12-18T17:28:20;1.20;68.30
42037;DHT22;30340;52.004;5.908;2022-12-18T17:30:46;1.20;68.50
42037;DHT22;30340;52.004;5.908;2022-12-18T17:33:12;1.20;68.80